createdAt,value
2019-05-28T00:01:35.702Z,9.15
2019-05-28T00:04:05.064Z,9.70
2019-05-28T00:06:34.365Z,8.70
2019-05-28T00:09:03.720Z,8.70
2019-05-28T00:11:32.990Z,11.03
2019-05-28T00:14:02.304Z,8.73
2019-05-28T00:16:31.558Z,11.35
2019-05-28T00:19:00.860Z,10.85
2019-05-28T00:21:30.110Z,7.33
2019-05-28T00:23:59.409Z,8.05
2019-05-28T00:26:28.699Z,9.33
2019-05-28T00:28:58.025Z,7.90
2019-05-28T00:31:27.297Z,9.50
2019-05-28T00:33:56.611Z,7.12
2019-05-28T00:36:25.889Z,9.93
2019-05-28T00:38:55.175Z,9.95
2019-05-28T00:41:24.432Z,8.35
2019-05-28T00:43:53.737Z,8.50
2019-05-28T00:46:23.041Z,10.65
2019-05-28T00:48:52.407Z,9.20
2019-05-28T00:51:21.764Z,8.55
2019-05-28T00:53:51.083Z,7.20
2019-05-28T00:56:20.673Z,8.20
2019-05-28T00:58:51.075Z,6.58
2019-05-28T01:01:20.369Z,8.80
2019-05-28T01:03:49.689Z,10.40
2019-05-28T01:06:19.141Z,8.60
2019-05-28T01:08:48.421Z,7.62
2019-05-28T01:11:17.891Z,7.78
2019-05-28T01:13:47.219Z,9.50
2019-05-28T01:16:16.630Z,10.28
2019-05-28T01:18:45.987Z,9.25
2019-05-28T01:21:15.360Z,8.88
2019-05-28T01:23:44.691Z,9.43
2019-05-28T01:26:14.111Z,9.35
2019-05-28T01:28:43.346Z,7.05
2019-05-28T01:31:12.621Z,9.08
2019-05-28T01:33:41.936Z,8.25
2019-05-28T01:36:11.212Z,8.73
2019-05-28T01:38:40.520Z,11.70
2019-05-28T01:41:09.811Z,8.40
2019-05-28T01:43:39.095Z,8.28
2019-05-28T01:46:08.390Z,11.30
2019-05-28T01:48:37.695Z,9.35
2019-05-28T01:51:07.003Z,10.58
2019-05-28T01:53:36.258Z,8.53
2019-05-28T01:56:05.684Z,7.62
2019-05-28T01:58:34.943Z,7.03
2019-05-28T02:01:12.721Z,8.20
2019-05-28T02:03:35.359Z,7.90
2019-05-28T02:06:04.628Z,6.92
2019-05-28T02:08:33.886Z,6.40
2019-05-28T02:11:03.216Z,11.45
2019-05-28T02:13:32.469Z,8.10
2019-05-28T02:16:01.723Z,8.35
2019-05-28T02:18:30.992Z,7.85
2019-05-28T02:21:00.258Z,7.87
2019-05-28T02:23:29.550Z,8.00
2019-05-28T02:25:58.918Z,8.10
2019-05-28T02:28:28.207Z,6.97
2019-05-28T02:30:57.456Z,8.13
2019-05-28T02:33:26.720Z,8.00
2019-05-28T02:35:56.107Z,7.62
2019-05-28T02:38:25.485Z,6.78
2019-05-28T02:40:54.789Z,11.73
2019-05-28T02:43:24.067Z,9.43
2019-05-28T02:45:53.357Z,10.68
2019-05-28T02:48:25.733Z,8.90
2019-05-28T02:51:00.538Z,8.20
2019-05-28T02:53:30.422Z,9.48
2019-05-28T02:55:59.808Z,11.25
2019-05-28T02:58:33.145Z,7.97
2019-05-28T03:01:03.234Z,9.13
2019-05-28T03:03:32.778Z,9.13
2019-05-28T03:06:02.078Z,8.13
2019-05-28T03:08:32.456Z,11.63
2019-05-28T03:11:04.087Z,7.08
2019-05-28T03:13:33.538Z,9.57
2019-05-28T03:16:04.883Z,8.45
2019-05-28T03:18:37.633Z,9.53
2019-05-28T03:21:08.347Z,10.93
2019-05-28T03:23:40.701Z,10.32
2019-05-28T03:26:09.996Z,9.60
2019-05-28T03:28:39.316Z,10.70
2019-05-28T03:31:08.680Z,10.72
2019-05-28T03:33:37.978Z,11.45
2019-05-28T03:36:10.397Z,10.18
2019-05-28T03:38:40.451Z,10.68
2019-05-28T03:41:09.711Z,13.35
2019-05-28T03:43:38.999Z,12.63
2019-05-28T03:46:08.319Z,10.85
2019-05-28T03:48:37.642Z,12.33
2019-05-28T03:54:04.672Z,11.40
2019-05-28T03:56:34.031Z,14.47
2019-05-28T03:59:03.333Z,14.20
2019-05-28T04:01:32.666Z,11.25
2019-05-28T04:04:02.249Z,11.60
2019-05-28T04:06:31.568Z,13.53
2019-05-28T04:09:00.860Z,14.87
2019-05-28T04:11:43.911Z,11.73
2019-05-28T04:14:01.265Z,12.53
2019-05-28T04:16:30.541Z,12.78
2019-05-28T04:18:59.991Z,11.80
2019-05-28T04:21:29.375Z,15.78
2019-05-28T04:23:59.764Z,11.38
2019-05-28T04:26:29.067Z,14.40
2019-05-28T04:28:59.500Z,12.95
2019-05-28T04:31:30.446Z,12.90
2019-05-28T04:33:59.732Z,14.75
2019-05-28T04:36:29.063Z,13.95
2019-05-28T04:38:58.371Z,11.30
2019-05-28T04:41:27.735Z,13.53
2019-05-28T04:43:57.047Z,13.00
2019-05-28T04:46:26.427Z,16.07
2019-05-28T04:48:55.812Z,12.47
2019-05-28T04:51:25.331Z,16.00
2019-05-28T04:57:47.192Z,11.93
2019-05-28T05:00:17.509Z,13.68
2019-05-28T05:02:58.683Z,13.75
2019-05-28T05:05:17.980Z,11.95
2019-05-28T05:07:47.420Z,14.90
2019-05-28T05:13:58.616Z,14.18
2019-05-28T05:16:28.021Z,12.73
2019-05-28T05:18:57.329Z,12.90
2019-05-28T05:21:26.653Z,11.73
2019-05-28T05:23:55.964Z,14.50
2019-05-28T05:26:25.305Z,13.95
2019-05-28T05:28:54.624Z,13.30
2019-05-28T05:31:23.954Z,15.00
2019-05-28T05:33:53.291Z,13.55
2019-05-28T05:36:22.589Z,13.03
2019-05-28T05:38:51.910Z,14.65
2019-05-28T05:41:21.208Z,19.23
2019-05-28T05:43:50.611Z,15.70
2019-05-28T05:46:20.750Z,16.57
2019-05-28T05:48:50.073Z,14.47
2019-05-28T05:51:19.362Z,17.92
2019-05-28T05:53:48.679Z,13.72
2019-05-28T05:56:18.007Z,17.10
2019-05-28T05:58:47.346Z,17.92
2019-05-28T06:01:16.687Z,17.95
2019-05-28T06:03:46.053Z,15.65
2019-05-28T06:06:15.414Z,18.48
2019-05-28T06:08:44.785Z,14.28
2019-05-28T06:11:14.061Z,16.02
2019-05-28T06:13:43.381Z,13.75
2019-05-28T06:16:12.685Z,20.85
2019-05-28T06:18:42.068Z,18.00
2019-05-28T06:21:16.500Z,18.95
2019-05-28T06:23:42.488Z,19.02
2019-05-28T06:26:11.831Z,20.20
2019-05-28T06:28:41.111Z,19.57
2019-05-28T06:31:10.414Z,19.57
2019-05-28T06:33:55.055Z,19.07
2019-05-28T06:36:10.826Z,16.50
2019-05-28T06:38:40.158Z,17.50
2019-05-28T06:41:09.452Z,16.02
2019-05-28T06:43:38.778Z,15.60
2019-05-28T06:46:08.130Z,20.08
2019-05-28T06:48:37.452Z,16.57
2019-05-28T06:51:06.796Z,17.73
2019-05-28T06:53:36.074Z,16.80
2019-05-28T06:56:05.418Z,16.85
2019-05-28T06:58:39.209Z,18.15
2019-05-28T07:01:05.948Z,18.65
2019-05-28T07:03:35.436Z,16.27
2019-05-28T07:06:07.503Z,16.95
2019-05-28T07:08:35.806Z,18.05
2019-05-28T07:11:05.095Z,17.17
2019-05-28T07:13:34.403Z,16.00
2019-05-28T07:16:03.698Z,19.02
2019-05-28T07:18:32.999Z,18.17
2019-05-28T07:21:02.313Z,18.05
2019-05-28T07:23:31.617Z,18.17
2019-05-28T07:26:01.035Z,17.90
2019-05-28T07:28:30.331Z,16.57
2019-05-28T07:30:59.746Z,17.67
2019-05-28T07:33:29.063Z,16.87
2019-05-28T07:35:58.391Z,18.25
2019-05-28T07:38:27.718Z,19.30
2019-05-28T07:40:57.023Z,20.05
2019-05-28T07:43:26.291Z,18.30
2019-05-28T07:45:55.699Z,20.27
2019-05-28T07:48:25.049Z,19.17
2019-05-28T07:50:54.404Z,19.65
2019-05-28T07:53:38.774Z,20.97
2019-05-28T07:55:54.770Z,21.90
2019-05-28T08:22:57.896Z,12.20
2019-05-28T08:25:45.569Z,7.28
2019-05-28T08:28:16.379Z,9.93
2019-05-28T08:30:31.048Z,6.95
2019-05-28T08:33:00.397Z,14.35
2019-05-28T08:35:29.758Z,11.12
2019-05-28T08:37:59.107Z,11.38
2019-05-28T08:40:28.471Z,11.10
2019-05-28T08:42:59.895Z,8.73
2019-05-28T08:45:29.177Z,10.08
2019-05-28T08:47:58.515Z,9.33
2019-05-28T08:50:34.608Z,7.25
2019-05-28T09:54:47.192Z,13.93
2019-05-28T09:57:16.473Z,11.33
2019-05-28T09:59:45.855Z,10.48
2019-05-28T10:02:15.475Z,13.98
2019-05-28T10:04:49.702Z,12.13
2019-05-28T10:07:16.057Z,10.50
2019-05-28T10:09:45.410Z,13.05
2019-05-28T10:12:14.658Z,9.30
2019-05-28T10:14:44.489Z,9.73
2019-05-28T10:17:13.832Z,10.10
2019-05-28T10:19:45.016Z,9.78
2019-05-28T10:22:14.377Z,10.32
2019-05-28T10:24:43.665Z,11.90
2019-05-28T10:27:12.999Z,12.28
2019-05-28T10:29:42.330Z,9.60
2019-05-28T10:32:11.709Z,10.50
2019-05-28T10:35:00.080Z,12.68
2019-05-28T10:37:14.567Z,10.93
2019-05-28T10:39:43.875Z,12.60
2019-05-28T10:42:13.195Z,13.18
2019-05-28T10:44:45.092Z,12.40
2019-05-28T10:47:13.514Z,11.88
2019-05-28T10:49:42.810Z,12.82
2019-05-28T10:52:13.493Z,14.60
2019-05-28T10:54:42.768Z,13.10
2019-05-28T10:57:12.099Z,14.98
2019-05-28T10:59:44.197Z,15.72
2019-05-28T11:02:13.463Z,13.72
2019-05-28T11:04:43.084Z,17.52
2019-05-28T11:07:12.575Z,17.25
2019-05-28T11:09:41.840Z,16.27
2019-05-28T11:12:11.158Z,25.90
2019-05-28T11:14:40.458Z,24.23
2019-05-28T11:17:09.888Z,20.65
2019-05-28T11:19:39.143Z,18.40
2019-05-28T11:22:08.437Z,18.37
2019-05-28T11:24:37.797Z,21.15
2019-05-28T11:27:09.455Z,18.35
2019-05-28T11:29:38.802Z,15.40
2019-05-28T11:32:08.120Z,15.20
2019-05-28T11:34:38.350Z,19.10
2019-05-28T11:37:09.795Z,15.10
2019-05-28T11:39:38.605Z,16.35
2019-05-28T11:42:07.925Z,15.50
2019-05-28T11:44:37.353Z,15.10
2019-05-28T11:47:06.785Z,18.15
2019-05-28T11:49:36.021Z,20.72
2019-05-28T11:52:05.413Z,20.20
2019-05-28T11:54:34.686Z,14.70
2019-05-28T11:57:04.012Z,16.10
2019-05-28T11:59:33.469Z,10.90
2019-05-28T12:02:05.253Z,5.33
2019-05-28T12:04:33.841Z,3.90
2019-05-28T12:07:03.122Z,3.17
2019-05-28T12:09:32.468Z,5.95
2019-05-28T12:12:03.350Z,4.28
2019-05-28T12:14:32.627Z,3.40
2019-05-28T12:17:01.908Z,4.70
2019-05-28T12:19:31.197Z,2.75
2019-05-28T12:22:00.474Z,3.85
2019-05-28T12:24:29.775Z,3.52
2019-05-28T12:26:59.348Z,4.25
2019-05-28T12:29:28.748Z,2.60
2019-05-28T12:31:58.528Z,3.70
2019-05-28T12:34:28.183Z,3.75
2019-05-28T12:36:57.496Z,3.33
2019-05-28T12:39:26.851Z,4.75
2019-05-28T12:42:03.046Z,2.65
2019-05-28T12:45:09.492Z,2.95
2019-05-28T12:47:33.147Z,3.62
2019-05-28T12:50:17.932Z,3.90
2019-05-28T12:52:33.981Z,4.03
2019-05-28T12:55:05.262Z,3.95
2019-05-28T12:57:34.667Z,2.98
2019-05-28T13:00:05.778Z,5.40
2019-05-28T13:02:35.171Z,4.83
2019-05-28T13:05:06.029Z,6.00
2019-05-28T13:08:09.431Z,5.10
2019-05-28T13:10:36.339Z,6.50
2019-05-28T13:13:13.649Z,10.72
2019-05-28T13:15:47.904Z,7.75
2019-05-28T13:18:17.484Z,6.53
2019-05-28T13:20:49.891Z,7.42
2019-05-28T13:23:19.359Z,7.95
2019-05-28T13:25:52.622Z,7.42
2019-05-28T13:28:23.362Z,7.50
2019-05-28T13:30:54.308Z,6.20
2019-05-28T13:33:24.888Z,6.33
2019-05-28T13:35:55.462Z,7.05
2019-05-28T13:38:29.194Z,8.05
2019-05-28T13:41:00.393Z,6.83
2019-05-28T13:43:28.610Z,8.28
2019-05-28T13:45:58.018Z,9.30
2019-05-28T13:48:30.423Z,8.15
2019-05-28T13:51:02.596Z,10.45
2019-05-28T13:53:32.404Z,8.35
2019-05-28T13:56:05.239Z,8.40
2019-05-28T13:58:34.568Z,8.95
2019-05-28T14:01:05.680Z,9.35
2019-05-28T14:03:36.710Z,8.80
2019-05-28T14:06:06.120Z,8.33
2019-05-28T14:08:47.192Z,8.13
2019-05-28T14:11:12.821Z,8.38
2019-05-28T14:13:42.103Z,7.58
2019-05-28T14:16:11.694Z,7.37
2019-05-28T14:18:41.118Z,6.70
2019-05-28T14:21:10.515Z,6.00
2019-05-28T14:23:43.193Z,6.67
2019-05-28T14:28:47.337Z,7.10
2019-05-28T14:31:20.927Z,6.08
2019-05-28T14:33:47.734Z,7.40
2019-05-28T14:36:17.319Z,6.55
2019-05-28T14:39:01.248Z,5.20
2019-05-28T14:41:22.832Z,5.15
2019-05-28T14:43:54.297Z,6.15
2019-05-28T14:46:23.438Z,6.60
2019-05-28T14:48:52.880Z,5.90
2019-05-28T14:51:22.382Z,5.97
2019-05-28T14:53:51.792Z,5.75
2019-05-28T14:56:23.497Z,5.80
2019-05-28T14:58:54.165Z,5.37
2019-05-28T15:01:23.522Z,6.00
2019-05-28T15:03:52.828Z,6.30
2019-05-28T15:06:24.389Z,6.08
2019-05-28T15:08:53.160Z,6.50
2019-05-28T15:11:22.470Z,4.75
2019-05-28T15:13:51.817Z,4.92
2019-05-28T15:16:21.184Z,5.55
2019-05-28T15:18:50.515Z,5.62
2019-05-28T15:21:19.825Z,5.30
2019-05-28T15:23:49.174Z,5.42
2019-05-28T15:26:22.010Z,6.00
2019-05-28T15:28:51.454Z,5.35
2019-05-28T15:31:20.895Z,5.90
2019-05-28T15:33:53.187Z,5.25
2019-05-28T15:36:22.471Z,5.00
2019-05-28T15:38:51.969Z,4.92
2019-05-28T15:41:21.510Z,6.95
2019-05-28T15:43:51.182Z,4.50
2019-05-28T15:46:20.667Z,5.17
2019-05-28T15:48:50.478Z,4.78
2019-05-28T15:51:19.944Z,4.40
2019-05-28T15:53:49.467Z,4.42
2019-05-28T15:56:18.903Z,5.78
2019-05-28T15:58:49.841Z,4.45
2019-05-28T16:01:20.717Z,4.47
2019-05-28T16:03:50.238Z,5.20
2019-05-28T16:06:23.689Z,4.97
2019-05-28T16:08:52.979Z,6.47
2019-05-28T16:11:24.067Z,6.53
2019-05-28T16:13:53.855Z,5.25
2019-05-28T16:16:23.604Z,5.70
2019-05-28T16:18:55.808Z,7.25
2019-05-28T16:21:25.599Z,5.90
2019-05-28T16:23:55.119Z,6.90
2019-05-28T16:26:27.665Z,5.72
2019-05-28T16:28:58.953Z,5.87
2019-05-28T16:31:28.516Z,6.75
2019-05-28T16:34:00.720Z,6.95
2019-05-28T16:36:31.660Z,6.45
2019-05-28T16:39:01.091Z,5.97
2019-05-28T16:41:31.648Z,6.10
2019-05-28T16:44:02.735Z,6.07
2019-05-28T16:46:33.484Z,5.12
2019-05-28T16:49:04.727Z,6.53
2019-05-28T16:51:34.680Z,5.12
2019-05-28T16:54:18.233Z,5.87
2019-05-28T16:56:37.014Z,6.28
2019-05-28T16:59:06.534Z,7.40
2019-05-28T17:01:36.337Z,6.83
2019-05-28T17:04:05.999Z,6.72
2019-05-28T17:06:39.949Z,7.10
2019-05-28T17:09:08.414Z,6.30
2019-05-28T17:11:37.756Z,8.88
2019-05-28T17:14:07.051Z,7.40
2019-05-28T17:16:36.455Z,7.40
2019-05-28T17:19:06.034Z,9.30
2019-05-28T17:21:35.512Z,9.50
2019-05-28T17:24:04.865Z,7.97
2019-05-28T17:26:37.210Z,8.15
2019-05-28T17:29:06.542Z,7.05
2019-05-28T17:31:35.883Z,7.30
2019-05-28T17:34:05.194Z,6.87
2019-05-28T17:36:34.628Z,8.00
2019-05-28T17:39:05.487Z,7.75
2019-05-28T17:41:34.829Z,6.37
2019-05-28T17:44:04.576Z,8.58
2019-05-28T17:46:33.988Z,7.75
2019-05-28T17:49:04.788Z,7.05
2019-05-28T17:51:34.576Z,9.48
2019-05-28T17:54:04.377Z,8.80
2019-05-28T17:56:34.084Z,8.48
2019-05-28T17:59:03.696Z,8.58
2019-05-28T18:01:35.680Z,10.45
2019-05-28T18:04:05.247Z,11.18
2019-05-28T18:06:34.601Z,10.85
2019-05-28T18:09:11.684Z,11.57
2019-05-28T18:11:44.087Z,10.35
2019-05-28T18:14:35.898Z,10.75
2019-05-28T18:17:49.507Z,9.45
2019-05-28T18:20:15.292Z,11.68
2019-05-28T18:22:46.874Z,12.63
2019-05-28T18:25:19.930Z,11.15
2019-05-28T18:27:50.142Z,13.25
2019-05-28T18:32:50.551Z,10.88
2019-05-28T18:35:50.663Z,12.00
2019-05-28T18:37:51.640Z,9.95
2019-05-28T18:40:21.568Z,9.13
2019-05-28T18:43:01.700Z,10.28
2019-05-28T18:45:42.606Z,9.88
2019-05-28T18:51:47.106Z,8.00
2019-05-28T18:55:23.523Z,9.90
2019-05-28T18:57:02.944Z,8.28
2019-05-28T18:59:35.811Z,6.65
2019-05-28T19:02:06.818Z,7.28
2019-05-28T19:04:41.149Z,9.43
2019-05-28T19:07:56.062Z,8.63
2019-05-28T19:10:25.867Z,6.80
2019-05-28T19:13:12.235Z,8.45
2019-05-28T19:15:43.231Z,9.83
2019-05-28T19:18:12.976Z,9.55
2019-05-28T19:24:45.701Z,9.23
2019-05-28T19:27:16.855Z,7.53
2019-05-28T19:29:50.395Z,9.48
2019-05-28T19:32:26.725Z,9.20
2019-05-28T19:34:54.241Z,10.10
2019-05-28T19:37:56.871Z,12.20
2019-05-28T19:40:45.399Z,9.83
2019-05-28T19:46:13.595Z,8.53
2019-05-28T19:48:44.041Z,10.58
2019-05-28T19:51:32.843Z,7.90
2019-05-28T19:54:02.630Z,7.28
2019-05-28T19:56:36.037Z,6.97
2019-05-28T19:59:11.700Z,9.08
2019-05-28T20:01:41.440Z,8.78
2019-05-28T20:05:08.424Z,9.88
2019-05-28T20:07:34.143Z,8.77
2019-05-28T20:10:31.814Z,8.98
2019-05-28T20:13:09.146Z,8.14
2019-05-28T20:16:26.856Z,8.53
2019-05-28T20:19:23.458Z,8.80
2019-05-28T20:22:47.738Z,7.83
2019-05-28T20:25:17.642Z,8.40
2019-05-28T20:27:48.203Z,6.37
2019-05-28T20:30:25.172Z,7.58
2019-05-28T20:36:17.302Z,7.10
2019-05-28T20:38:49.375Z,8.50
2019-05-28T20:47:35.942Z,11.03
2019-05-28T20:50:38.151Z,7.50
2019-05-28T20:53:40.048Z,8.38
2019-05-28T20:56:10.828Z,6.25
2019-05-28T20:58:40.837Z,9.75
2019-05-28T21:01:10.363Z,7.50
2019-05-28T21:03:41.249Z,7.25
2019-05-28T21:06:11.704Z,5.35
2019-05-28T21:08:41.133Z,7.10
2019-05-28T21:11:11.926Z,7.58
2019-05-28T21:13:44.016Z,5.17
2019-05-28T21:16:17.472Z,5.37
2019-05-28T21:18:48.996Z,7.17
2019-05-28T21:21:25.039Z,7.73
2019-05-28T21:23:55.824Z,8.48
2019-05-28T21:26:25.338Z,5.90
2019-05-28T21:28:54.792Z,8.03
2019-05-28T21:31:30.420Z,6.95
2019-05-28T21:34:02.604Z,4.83
2019-05-28T21:36:32.043Z,6.00
2019-05-28T21:39:01.552Z,6.12
2019-05-28T21:41:30.898Z,4.20
2019-05-28T21:44:02.244Z,7.97
2019-05-28T21:46:38.630Z,7.37
2019-05-28T21:49:08.169Z,7.20
2019-05-28T21:55:06.997Z,6.50
2019-05-28T21:57:43.862Z,8.03
2019-05-28T22:00:29.919Z,5.15
2019-05-28T22:03:10.430Z,6.72
2019-05-28T22:05:45.182Z,7.17
2019-05-28T22:08:24.413Z,7.70
2019-05-28T22:11:03.909Z,5.75
2019-05-28T22:13:28.356Z,6.58
2019-05-28T22:16:16.253Z,6.42
2019-05-28T22:18:54.008Z,8.40
2019-05-28T22:21:26.647Z,5.85
2019-05-28T22:23:56.317Z,6.00
2019-05-28T22:26:28.022Z,6.50
2019-05-28T22:29:01.663Z,10.72
2019-05-28T22:31:31.271Z,10.03
2019-05-28T22:34:01.065Z,8.83
2019-05-28T22:36:30.721Z,10.50
2019-05-28T22:39:09.863Z,7.83
2019-05-28T22:41:43.121Z,10.82
2019-05-28T22:44:12.613Z,9.55
2019-05-28T22:46:41.965Z,7.90
2019-05-28T22:49:11.369Z,7.08
2019-05-28T22:51:40.691Z,8.40
2019-05-28T22:54:10.025Z,6.87
2019-05-28T22:56:39.303Z,6.97
2019-05-28T22:59:08.662Z,5.28
2019-05-28T23:01:37.962Z,6.62
2019-05-28T23:04:07.216Z,5.62
2019-05-28T23:06:36.553Z,6.10
2019-05-28T23:09:07.785Z,6.10
2019-05-28T23:11:37.145Z,6.55
2019-05-28T23:14:06.399Z,8.53
2019-05-28T23:16:35.719Z,6.42
2019-05-28T23:19:04.985Z,5.30
2019-05-28T23:21:34.281Z,6.25
2019-05-28T23:24:03.602Z,6.08
2019-05-28T23:26:32.867Z,5.58
2019-05-28T23:29:02.106Z,5.25
2019-05-28T23:31:31.440Z,7.30
2019-05-28T23:34:00.708Z,6.22
2019-05-28T23:36:30.000Z,5.70
2019-05-28T23:38:59.264Z,5.90
2019-05-28T23:41:29.799Z,5.79
2019-05-28T23:44:01.884Z,6.80
2019-05-28T23:46:30.069Z,5.80
2019-05-28T23:48:59.366Z,8.58
2019-05-28T23:51:28.632Z,8.28
2019-05-28T23:53:57.952Z,4.20
2019-05-28T23:56:27.237Z,4.50
2019-05-28T23:58:56.545Z,5.80
